sensor_id;sensor_type;location;lat;lon;timestamp;P1;durP1;ratioP1;P2;durP2;ratioP2
69244;SDS011;56357;52.304;4.870;2023-04-24T00:00:57;2.88;;;0.50;;
69244;SDS011;56357;52.304;4.870;2023-04-24T00:03:26;2.27;;;0.40;;
69244;SDS011;56357;52.304;4.870;2023-04-24T00:05:53;3.00;;;0.50;;
69244;SDS011;56357;52.304;4.870;2023-04-24T00:08:20;4.82;;;0.68;;
69244;SDS011;56357;52.304;4.870;2023-04-24T00:10:47;2.33;;;0.50;;
69244;SDS011;56357;52.304;4.870;2023-04-24T00:13:14;2.30;;;0.60;;
69244;SDS011;56357;52.304;4.870;2023-04-24T00:15:40;3.10;;;0.40;;
69244;SDS011;56357;52.304;4.870;2023-04-24T00:18:06;2.40;;;0.40;;
69244;SDS011;56357;52.304;4.870;2023-04-24T00:20:33;2.17;;;0.40;;
69244;SDS011;56357;52.304;4.870;2023-04-24T00:23:00;3.25;;;0.52;;
69244;SDS011;56357;52.304;4.870;2023-04-24T00:25:26;2.97;;;0.60;;
69244;SDS011;56357;52.304;4.870;2023-04-24T00:27:53;4.37;;;0.40;;
69244;SDS011;56357;52.304;4.870;2023-04-24T00:30:19;2.70;;;0.50;;
69244;SDS011;56357;52.304;4.870;2023-04-24T00:32:46;4.20;;;0.70;;
69244;SDS011;56357;52.304;4.870;2023-04-24T00:35:12;3.50;;;0.77;;
69244;SDS011;56357;52.304;4.870;2023-04-24T00:37:39;4.40;;;0.90;;
69244;SDS011;56357;52.304;4.870;2023-04-24T00:40:06;3.93;;;0.80;;
69244;SDS011;56357;52.304;4.870;2023-04-24T00:42:32;4.25;;;0.68;;
69244;SDS011;56357;52.304;4.870;2023-04-24T00:44:59;2.97;;;0.70;;
69244;SDS011;56357;52.304;4.870;2023-04-24T00:47:28;3.78;;;0.50;;
69244;SDS011;56357;52.304;4.870;2023-04-24T00:49:55;3.22;;;0.40;;
69244;SDS011;56357;52.304;4.870;2023-04-24T00:52:21;3.00;;;0.40;;
69244;SDS011;56357;52.304;4.870;2023-04-24T00:54:49;2.58;;;0.40;;
69244;SDS011;56357;52.304;4.870;2023-04-24T00:57:15;2.95;;;0.40;;
69244;SDS011;56357;52.304;4.870;2023-04-24T00:59:42;2.22;;;0.50;;
69244;SDS011;56357;52.304;4.870;2023-04-24T01:02:09;2.28;;;0.30;;
69244;SDS011;56357;52.304;4.870;2023-04-24T01:04:37;4.10;;;0.50;;
69244;SDS011;56357;52.304;4.870;2023-04-24T01:07:03;2.38;;;0.30;;
69244;SDS011;56357;52.304;4.870;2023-04-24T01:09:34;1.95;;;0.30;;
69244;SDS011;56357;52.304;4.870;2023-04-24T01:12:01;2.33;;;0.40;;
69244;SDS011;56357;52.304;4.870;2023-04-24T01:14:28;2.88;;;0.57;;
69244;SDS011;56357;52.304;4.870;2023-04-24T01:16:55;2.33;;;0.23;;
69244;SDS011;56357;52.304;4.870;2023-04-24T01:19:22;3.65;;;0.30;;
69244;SDS011;56357;52.304;4.870;2023-04-24T01:21:50;1.98;;;0.40;;
69244;SDS011;56357;52.304;4.870;2023-04-24T01:24:19;2.83;;;0.32;;
69244;SDS011;56357;52.304;4.870;2023-04-24T01:26:46;2.20;;;0.30;;
69244;SDS011;56357;52.304;4.870;2023-04-24T01:29:12;1.73;;;0.20;;
69244;SDS011;56357;52.304;4.870;2023-04-24T01:31:39;1.80;;;0.25;;
69244;SDS011;56357;52.304;4.870;2023-04-24T01:34:06;4.13;;;0.40;;
69244;SDS011;56357;52.304;4.870;2023-04-24T01:36:34;2.15;;;0.30;;
69244;SDS011;56357;52.304;4.870;2023-04-24T01:39:01;3.22;;;0.47;;
69244;SDS011;56357;52.304;4.870;2023-04-24T01:41:28;3.90;;;0.40;;
69244;SDS011;56357;52.304;4.870;2023-04-24T01:43:54;3.13;;;0.32;;
69244;SDS011;56357;52.304;4.870;2023-04-24T01:46:21;2.75;;;0.40;;
69244;SDS011;56357;52.304;4.870;2023-04-24T01:48:48;1.63;;;0.20;;
69244;SDS011;56357;52.304;4.870;2023-04-24T01:51:14;3.33;;;0.50;;
69244;SDS011;56357;52.304;4.870;2023-04-24T01:53:41;1.93;;;0.30;;
69244;SDS011;56357;52.304;4.870;2023-04-24T01:56:07;2.63;;;0.32;;
69244;SDS011;56357;52.304;4.870;2023-04-24T01:58:35;2.13;;;0.40;;
69244;SDS011;56357;52.304;4.870;2023-04-24T02:01:02;2.20;;;0.40;;
69244;SDS011;56357;52.304;4.870;2023-04-24T02:03:28;4.28;;;0.50;;
69244;SDS011;56357;52.304;4.870;2023-04-24T02:05:54;2.57;;;0.30;;
69244;SDS011;56357;52.304;4.870;2023-04-24T02:08:21;2.17;;;0.30;;
69244;SDS011;56357;52.304;4.870;2023-04-24T02:10:47;2.63;;;0.30;;
69244;SDS011;56357;52.304;4.870;2023-04-24T02:13:13;2.35;;;0.20;;
69244;SDS011;56357;52.304;4.870;2023-04-24T02:15:40;1.77;;;0.30;;
69244;SDS011;56357;52.304;4.870;2023-04-24T02:18:06;1.50;;;0.20;;
69244;SDS011;56357;52.304;4.870;2023-04-24T02:20:32;2.47;;;0.50;;
69244;SDS011;56357;52.304;4.870;2023-04-24T02:23:00;2.05;;;0.30;;
69244;SDS011;56357;52.304;4.870;2023-04-24T02:25:27;2.67;;;0.40;;
69244;SDS011;56357;52.304;4.870;2023-04-24T02:27:53;3.42;;;0.40;;
69244;SDS011;56357;52.304;4.870;2023-04-24T02:30:19;2.97;;;0.40;;
69244;SDS011;56357;52.304;4.870;2023-04-24T02:32:46;2.15;;;0.40;;
69244;SDS011;56357;52.304;4.870;2023-04-24T02:35:12;1.83;;;0.30;;
69244;SDS011;56357;52.304;4.870;2023-04-24T02:37:38;2.50;;;0.40;;
69244;SDS011;56357;52.304;4.870;2023-04-24T02:40:05;3.50;;;0.45;;
69244;SDS011;56357;52.304;4.870;2023-04-24T02:42:32;2.93;;;0.30;;
69244;SDS011;56357;52.304;4.870;2023-04-24T02:44:58;3.60;;;0.30;;
69244;SDS011;56357;52.304;4.870;2023-04-24T02:47:25;3.33;;;0.30;;
69244;SDS011;56357;52.304;4.870;2023-04-24T02:49:51;1.88;;;0.30;;
69244;SDS011;56357;52.304;4.870;2023-04-24T02:52:18;3.30;;;0.30;;
69244;SDS011;56357;52.304;4.870;2023-04-24T02:54:44;1.47;;;0.20;;
69244;SDS011;56357;52.304;4.870;2023-04-24T02:57:10;2.15;;;0.30;;
69244;SDS011;56357;52.304;4.870;2023-04-24T02:59:37;2.55;;;0.30;;
69244;SDS011;56357;52.304;4.870;2023-04-24T03:02:03;2.45;;;0.20;;
69244;SDS011;56357;52.304;4.870;2023-04-24T03:04:30;1.88;;;0.30;;
69244;SDS011;56357;52.304;4.870;2023-04-24T03:06:57;1.53;;;0.20;;
69244;SDS011;56357;52.304;4.870;2023-04-24T03:09:23;1.77;;;0.20;;
69244;SDS011;56357;52.304;4.870;2023-04-24T03:11:50;2.30;;;0.20;;
69244;SDS011;56357;52.304;4.870;2023-04-24T03:14:16;1.58;;;0.30;;
69244;SDS011;56357;52.304;4.870;2023-04-24T03:16:43;2.50;;;0.45;;
69244;SDS011;56357;52.304;4.870;2023-04-24T03:19:09;3.07;;;0.30;;
69244;SDS011;56357;52.304;4.870;2023-04-24T03:21:36;2.00;;;0.30;;
69244;SDS011;56357;52.304;4.870;2023-04-24T03:24:05;1.23;;;0.20;;
69244;SDS011;56357;52.304;4.870;2023-04-24T03:26:32;3.70;;;0.38;;
69244;SDS011;56357;52.304;4.870;2023-04-24T03:28:59;2.70;;;0.32;;
69244;SDS011;56357;52.304;4.870;2023-04-24T03:31:25;4.97;;;0.40;;
69244;SDS011;56357;52.304;4.870;2023-04-24T03:33:52;2.03;;;0.30;;
69244;SDS011;56357;52.304;4.870;2023-04-24T03:36:18;2.67;;;0.40;;
69244;SDS011;56357;52.304;4.870;2023-04-24T03:38:45;1.92;;;0.30;;
69244;SDS011;56357;52.304;4.870;2023-04-24T03:41:11;2.97;;;0.30;;
69244;SDS011;56357;52.304;4.870;2023-04-24T03:43:38;1.97;;;0.30;;
69244;SDS011;56357;52.304;4.870;2023-04-24T03:46:05;1.77;;;0.30;;
69244;SDS011;56357;52.304;4.870;2023-04-24T03:48:31;2.08;;;0.40;;
69244;SDS011;56357;52.304;4.870;2023-04-24T03:50:58;2.58;;;0.28;;
69244;SDS011;56357;52.304;4.870;2023-04-24T03:53:24;1.83;;;0.20;;
69244;SDS011;56357;52.304;4.870;2023-04-24T03:55:51;1.70;;;0.20;;
69244;SDS011;56357;52.304;4.870;2023-04-24T03:58:18;1.58;;;0.20;;
69244;SDS011;56357;52.304;4.870;2023-04-24T04:00:45;2.10;;;0.30;;
69244;SDS011;56357;52.304;4.870;2023-04-24T04:03:13;1.75;;;0.20;;
69244;SDS011;56357;52.304;4.870;2023-04-24T04:05:39;2.10;;;0.30;;
69244;SDS011;56357;52.304;4.870;2023-04-24T04:08:06;1.57;;;0.20;;
69244;SDS011;56357;52.304;4.870;2023-04-24T04:10:32;2.97;;;0.30;;
69244;SDS011;56357;52.304;4.870;2023-04-24T04:12:59;1.88;;;0.20;;
69244;SDS011;56357;52.304;4.870;2023-04-24T04:15:25;2.83;;;0.30;;
69244;SDS011;56357;52.304;4.870;2023-04-24T04:17:52;1.92;;;0.28;;
69244;SDS011;56357;52.304;4.870;2023-04-24T04:20:18;1.70;;;0.20;;
69244;SDS011;56357;52.304;4.870;2023-04-24T04:22:45;2.42;;;0.30;;
69244;SDS011;56357;52.304;4.870;2023-04-24T04:25:11;1.90;;;0.20;;
69244;SDS011;56357;52.304;4.870;2023-04-24T04:27:38;2.20;;;0.40;;
69244;SDS011;56357;52.304;4.870;2023-04-24T04:30:06;2.95;;;0.38;;
69244;SDS011;56357;52.304;4.870;2023-04-24T04:32:34;1.70;;;0.20;;
69244;SDS011;56357;52.304;4.870;2023-04-24T04:35:01;3.58;;;0.20;;
69244;SDS011;56357;52.304;4.870;2023-04-24T04:37:28;2.08;;;0.40;;
69244;SDS011;56357;52.304;4.870;2023-04-24T04:39:56;1.50;;;0.20;;
69244;SDS011;56357;52.304;4.870;2023-04-24T04:42:23;3.50;;;0.30;;
69244;SDS011;56357;52.304;4.870;2023-04-24T04:44:50;1.47;;;0.20;;
69244;SDS011;56357;52.304;4.870;2023-04-24T04:47:16;1.27;;;0.20;;
69244;SDS011;56357;52.304;4.870;2023-04-24T04:49:43;1.00;;;0.20;;
69244;SDS011;56357;52.304;4.870;2023-04-24T04:52:10;1.70;;;0.20;;
69244;SDS011;56357;52.304;4.870;2023-04-24T04:54:36;2.00;;;0.30;;
69244;SDS011;56357;52.304;4.870;2023-04-24T04:57:02;1.40;;;0.20;;
69244;SDS011;56357;52.304;4.870;2023-04-24T04:59:29;2.05;;;0.20;;
69244;SDS011;56357;52.304;4.870;2023-04-24T05:01:55;1.42;;;0.20;;
69244;SDS011;56357;52.304;4.870;2023-04-24T05:04:22;2.40;;;0.30;;
69244;SDS011;56357;52.304;4.870;2023-04-24T05:06:48;2.45;;;0.35;;
69244;SDS011;56357;52.304;4.870;2023-04-24T05:09:16;1.93;;;0.30;;
69244;SDS011;56357;52.304;4.870;2023-04-24T05:11:42;1.33;;;0.20;;
69244;SDS011;56357;52.304;4.870;2023-04-24T05:14:08;1.88;;;0.28;;
69244;SDS011;56357;52.304;4.870;2023-04-24T05:16:35;2.10;;;0.30;;
69244;SDS011;56357;52.304;4.870;2023-04-24T05:19:02;2.13;;;0.22;;
69244;SDS011;56357;52.304;4.870;2023-04-24T05:21:28;1.70;;;0.30;;
69244;SDS011;56357;52.304;4.870;2023-04-24T05:23:55;2.45;;;0.40;;
69244;SDS011;56357;52.304;4.870;2023-04-24T05:26:22;1.90;;;0.30;;
69244;SDS011;56357;52.304;4.870;2023-04-24T05:28:49;2.83;;;0.47;;
69244;SDS011;56357;52.304;4.870;2023-04-24T05:31:16;3.85;;;0.50;;
69244;SDS011;56357;52.304;4.870;2023-04-24T05:33:43;4.10;;;0.57;;
69244;SDS011;56357;52.304;4.870;2023-04-24T05:36:09;5.20;;;0.80;;
69244;SDS011;56357;52.304;4.870;2023-04-24T05:38:36;3.90;;;0.88;;
69244;SDS011;56357;52.304;4.870;2023-04-24T05:41:02;3.72;;;0.73;;
69244;SDS011;56357;52.304;4.870;2023-04-24T05:43:29;4.88;;;0.90;;
69244;SDS011;56357;52.304;4.870;2023-04-24T05:45:55;6.30;;;0.60;;
69244;SDS011;56357;52.304;4.870;2023-04-24T05:48:22;5.32;;;1.00;;
69244;SDS011;56357;52.304;4.870;2023-04-24T05:50:48;5.90;;;1.35;;
69244;SDS011;56357;52.304;4.870;2023-04-24T05:53:14;9.45;;;2.28;;
69244;SDS011;56357;52.304;4.870;2023-04-24T05:55:41;7.25;;;1.95;;
69244;SDS011;56357;52.304;4.870;2023-04-24T05:58:07;6.77;;;2.20;;
69244;SDS011;56357;52.304;4.870;2023-04-24T06:00:34;8.27;;;1.30;;
69244;SDS011;56357;52.304;4.870;2023-04-24T06:03:01;9.02;;;2.60;;
69244;SDS011;56357;52.304;4.870;2023-04-24T06:05:28;6.05;;;1.67;;
69244;SDS011;56357;52.304;4.870;2023-04-24T06:07:55;9.50;;;2.67;;
69244;SDS011;56357;52.304;4.870;2023-04-24T06:10:21;9.40;;;2.60;;
69244;SDS011;56357;52.304;4.870;2023-04-24T06:12:48;5.78;;;1.70;;
69244;SDS011;56357;52.304;4.870;2023-04-24T06:15:14;10.65;;;2.65;;
69244;SDS011;56357;52.304;4.870;2023-04-24T06:17:40;8.85;;;1.75;;
69244;SDS011;56357;52.304;4.870;2023-04-24T06:20:07;7.78;;;1.98;;
69244;SDS011;56357;52.304;4.870;2023-04-24T06:22:35;9.67;;;2.57;;
69244;SDS011;56357;52.304;4.870;2023-04-24T06:25:02;8.60;;;2.67;;
69244;SDS011;56357;52.304;4.870;2023-04-24T06:27:29;7.75;;;2.17;;
69244;SDS011;56357;52.304;4.870;2023-04-24T06:29:55;10.27;;;2.55;;
69244;SDS011;56357;52.304;4.870;2023-04-24T06:32:22;10.23;;;2.95;;
69244;SDS011;56357;52.304;4.870;2023-04-24T06:34:52;10.97;;;2.97;;
69244;SDS011;56357;52.304;4.870;2023-04-24T06:37:19;11.15;;;2.60;;
69244;SDS011;56357;52.304;4.870;2023-04-24T06:39:46;11.80;;;3.03;;
69244;SDS011;56357;52.304;4.870;2023-04-24T06:42:12;8.18;;;2.60;;
69244;SDS011;56357;52.304;4.870;2023-04-24T06:44:39;13.13;;;3.05;;
69244;SDS011;56357;52.304;4.870;2023-04-24T06:47:07;8.17;;;2.60;;
69244;SDS011;56357;52.304;4.870;2023-04-24T06:49:35;8.38;;;2.50;;
69244;SDS011;56357;52.304;4.870;2023-04-24T06:52:02;7.90;;;2.53;;
69244;SDS011;56357;52.304;4.870;2023-04-24T06:54:29;8.95;;;2.40;;
69244;SDS011;56357;52.304;4.870;2023-04-24T06:56:56;8.73;;;3.00;;
69244;SDS011;56357;52.304;4.870;2023-04-24T06:59:23;10.13;;;2.40;;
69244;SDS011;56357;52.304;4.870;2023-04-24T07:01:50;10.88;;;2.40;;
69244;SDS011;56357;52.304;4.870;2023-04-24T07:04:17;9.82;;;3.00;;
69244;SDS011;56357;52.304;4.870;2023-04-24T07:06:47;10.55;;;2.72;;
69244;SDS011;56357;52.304;4.870;2023-04-24T07:09:16;11.27;;;2.40;;
69244;SDS011;56357;52.304;4.870;2023-04-24T07:11:43;12.10;;;2.33;;
69244;SDS011;56357;52.304;4.870;2023-04-24T07:14:10;9.05;;;2.35;;
69244;SDS011;56357;52.304;4.870;2023-04-24T07:16:37;9.43;;;2.38;;
69244;SDS011;56357;52.304;4.870;2023-04-24T07:19:04;9.23;;;2.40;;
69244;SDS011;56357;52.304;4.870;2023-04-24T07:21:31;10.45;;;2.67;;
69244;SDS011;56357;52.304;4.870;2023-04-24T07:24:00;11.57;;;2.43;;
69244;SDS011;56357;52.304;4.870;2023-04-24T07:26:28;14.05;;;2.88;;
69244;SDS011;56357;52.304;4.870;2023-04-24T07:28:55;11.05;;;2.47;;
69244;SDS011;56357;52.304;4.870;2023-04-24T07:31:21;12.00;;;2.70;;
69244;SDS011;56357;52.304;4.870;2023-04-24T07:33:48;9.18;;;2.38;;
69244;SDS011;56357;52.304;4.870;2023-04-24T07:36:15;11.27;;;2.20;;
69244;SDS011;56357;52.304;4.870;2023-04-24T07:38:44;10.30;;;2.47;;
69244;SDS011;56357;52.304;4.870;2023-04-24T07:41:13;11.50;;;2.40;;
69244;SDS011;56357;52.304;4.870;2023-04-24T07:43:41;7.75;;;2.08;;
69244;SDS011;56357;52.304;4.870;2023-04-24T07:46:08;8.60;;;2.10;;
69244;SDS011;56357;52.304;4.870;2023-04-24T07:48:34;9.93;;;1.70;;
69244;SDS011;56357;52.304;4.870;2023-04-24T07:51:01;7.78;;;2.10;;
69244;SDS011;56357;52.304;4.870;2023-04-24T07:53:27;9.68;;;2.17;;
69244;SDS011;56357;52.304;4.870;2023-04-24T07:55:55;8.27;;;1.90;;
69244;SDS011;56357;52.304;4.870;2023-04-24T07:58:22;8.88;;;2.22;;
69244;SDS011;56357;52.304;4.870;2023-04-24T08:00:49;8.90;;;1.87;;
69244;SDS011;56357;52.304;4.870;2023-04-24T08:03:15;9.77;;;2.00;;
69244;SDS011;56357;52.304;4.870;2023-04-24T08:05:44;7.13;;;2.20;;
69244;SDS011;56357;52.304;4.870;2023-04-24T08:08:10;8.25;;;1.95;;
69244;SDS011;56357;52.304;4.870;2023-04-24T08:10:37;9.82;;;2.00;;
69244;SDS011;56357;52.304;4.870;2023-04-24T08:13:03;9.37;;;1.83;;
69244;SDS011;56357;52.304;4.870;2023-04-24T08:15:30;8.05;;;1.40;;
69244;SDS011;56357;52.304;4.870;2023-04-24T08:17:56;9.50;;;1.80;;
69244;SDS011;56357;52.304;4.870;2023-04-24T08:20:23;9.90;;;2.10;;
69244;SDS011;56357;52.304;4.870;2023-04-24T08:22:49;7.68;;;1.60;;
69244;SDS011;56357;52.304;4.870;2023-04-24T08:25:16;10.53;;;2.37;;
69244;SDS011;56357;52.304;4.870;2023-04-24T08:27:43;8.20;;;1.90;;
69244;SDS011;56357;52.304;4.870;2023-04-24T08:30:09;8.82;;;1.75;;
69244;SDS011;56357;52.304;4.870;2023-04-24T08:32:36;10.27;;;1.90;;
69244;SDS011;56357;52.304;4.870;2023-04-24T08:35:03;9.43;;;2.50;;
69244;SDS011;56357;52.304;4.870;2023-04-24T08:37:30;7.73;;;1.53;;
69244;SDS011;56357;52.304;4.870;2023-04-24T08:39:56;11.23;;;1.88;;
69244;SDS011;56357;52.304;4.870;2023-04-24T08:42:23;7.10;;;1.67;;
69244;SDS011;56357;52.304;4.870;2023-04-24T08:44:49;11.70;;;1.95;;
69244;SDS011;56357;52.304;4.870;2023-04-24T08:47:16;11.10;;;1.60;;
69244;SDS011;56357;52.304;4.870;2023-04-24T08:49:43;8.70;;;1.80;;
69244;SDS011;56357;52.304;4.870;2023-04-24T08:52:10;9.85;;;2.00;;
69244;SDS011;56357;52.304;4.870;2023-04-24T08:54:38;8.52;;;1.63;;
69244;SDS011;56357;52.304;4.870;2023-04-24T08:57:06;6.30;;;1.25;;
69244;SDS011;56357;52.304;4.870;2023-04-24T08:59:34;7.50;;;1.50;;
69244;SDS011;56357;52.304;4.870;2023-04-24T09:02:01;6.07;;;1.30;;
69244;SDS011;56357;52.304;4.870;2023-04-24T09:04:30;9.02;;;1.30;;
69244;SDS011;56357;52.304;4.870;2023-04-24T09:06:59;8.55;;;1.52;;
69244;SDS011;56357;52.304;4.870;2023-04-24T09:09:26;9.05;;;1.55;;
69244;SDS011;56357;52.304;4.870;2023-04-24T09:11:55;6.15;;;1.13;;
69244;SDS011;56357;52.304;4.870;2023-04-24T09:14:22;8.20;;;1.43;;
69244;SDS011;56357;52.304;4.870;2023-04-24T09:16:50;9.23;;;1.80;;
69244;SDS011;56357;52.304;4.870;2023-04-24T09:19:16;6.72;;;1.50;;
69244;SDS011;56357;52.304;4.870;2023-04-24T09:21:45;6.43;;;1.30;;
69244;SDS011;56357;52.304;4.870;2023-04-24T09:24:19;7.72;;;1.70;;
69244;SDS011;56357;52.304;4.870;2023-04-24T09:26:47;6.37;;;1.40;;
69244;SDS011;56357;52.304;4.870;2023-04-24T09:29:15;7.82;;;1.42;;
69244;SDS011;56357;52.304;4.870;2023-04-24T09:31:43;5.78;;;1.17;;
69244;SDS011;56357;52.304;4.870;2023-04-24T09:34:11;6.43;;;1.10;;
69244;SDS011;56357;52.304;4.870;2023-04-24T09:36:38;6.65;;;1.15;;
69244;SDS011;56357;52.304;4.870;2023-04-24T09:39:11;6.30;;;1.10;;
69244;SDS011;56357;52.304;4.870;2023-04-24T09:41:50;7.47;;;1.13;;
69244;SDS011;56357;52.304;4.870;2023-04-24T09:44:18;5.00;;;1.00;;
69244;SDS011;56357;52.304;4.870;2023-04-24T09:46:51;7.22;;;1.05;;
69244;SDS011;56357;52.304;4.870;2023-04-24T09:49:25;5.88;;;1.20;;
69244;SDS011;56357;52.304;4.870;2023-04-24T09:52:05;8.80;;;1.90;;
69244;SDS011;56357;52.304;4.870;2023-04-24T09:54:33;4.95;;;0.95;;
69244;SDS011;56357;52.304;4.870;2023-04-24T09:57:01;6.13;;;1.23;;
69244;SDS011;56357;52.304;4.870;2023-04-24T09:59:28;7.47;;;1.23;;
69244;SDS011;56357;52.304;4.870;2023-04-24T10:01:55;6.38;;;1.10;;
69244;SDS011;56357;52.304;4.870;2023-04-24T10:04:24;6.57;;;1.10;;
69244;SDS011;56357;52.304;4.870;2023-04-24T10:06:53;7.43;;;0.75;;
69244;SDS011;56357;52.304;4.870;2023-04-24T10:09:21;9.98;;;1.15;;
69244;SDS011;56357;52.304;4.870;2023-04-24T10:11:50;7.05;;;0.90;;
69244;SDS011;56357;52.304;4.870;2023-04-24T10:14:21;6.65;;;1.10;;
69244;SDS011;56357;52.304;4.870;2023-04-24T10:16:50;5.03;;;0.90;;
69244;SDS011;56357;52.304;4.870;2023-04-24T10:19:19;5.93;;;1.25;;
69244;SDS011;56357;52.304;4.870;2023-04-24T10:21:45;6.97;;;1.23;;
69244;SDS011;56357;52.304;4.870;2023-04-24T10:24:16;5.05;;;0.70;;
69244;SDS011;56357;52.304;4.870;2023-04-24T10:26:45;6.40;;;0.90;;
69244;SDS011;56357;52.304;4.870;2023-04-24T10:29:13;6.23;;;1.03;;
69244;SDS011;56357;52.304;4.870;2023-04-24T10:31:41;7.63;;;0.90;;
69244;SDS011;56357;52.304;4.870;2023-04-24T10:34:10;7.80;;;0.95;;
69244;SDS011;56357;52.304;4.870;2023-04-24T10:36:40;5.40;;;0.98;;
69244;SDS011;56357;52.304;4.870;2023-04-24T10:39:11;8.73;;;1.35;;
69244;SDS011;56357;52.304;4.870;2023-04-24T10:41:40;7.33;;;1.00;;
69244;SDS011;56357;52.304;4.870;2023-04-24T10:44:08;6.72;;;1.05;;
69244;SDS011;56357;52.304;4.870;2023-04-24T10:46:36;5.35;;;0.70;;
69244;SDS011;56357;52.304;4.870;2023-04-24T10:49:06;7.13;;;0.85;;
69244;SDS011;56357;52.304;4.870;2023-04-24T10:51:44;6.13;;;1.10;;
69244;SDS011;56357;52.304;4.870;2023-04-24T10:56:50;6.75;;;0.90;;
69244;SDS011;56357;52.304;4.870;2023-04-24T10:59:24;4.88;;;1.10;;
69244;SDS011;56357;52.304;4.870;2023-04-24T11:01:55;5.40;;;1.00;;
69244;SDS011;56357;52.304;4.870;2023-04-24T11:04:31;14.43;;;0.95;;
69244;SDS011;56357;52.304;4.870;2023-04-24T11:07:00;7.50;;;0.80;;
69244;SDS011;56357;52.304;4.870;2023-04-24T11:09:29;4.88;;;1.00;;
69244;SDS011;56357;52.304;4.870;2023-04-24T11:12:04;3.72;;;0.80;;
69244;SDS011;56357;52.304;4.870;2023-04-24T11:15:15;9.88;;;1.13;;
69244;SDS011;56357;52.304;4.870;2023-04-24T11:17:35;10.25;;;0.90;;
69244;SDS011;56357;52.304;4.870;2023-04-24T11:20:03;6.13;;;0.85;;
69244;SDS011;56357;52.304;4.870;2023-04-24T11:22:33;6.35;;;1.10;;
69244;SDS011;56357;52.304;4.870;2023-04-24T11:25:01;6.90;;;0.80;;
69244;SDS011;56357;52.304;4.870;2023-04-24T11:27:31;6.75;;;0.90;;
69244;SDS011;56357;52.304;4.870;2023-04-24T11:29:59;5.30;;;1.00;;
69244;SDS011;56357;52.304;4.870;2023-04-24T11:35:04;4.90;;;0.90;;
69244;SDS011;56357;52.304;4.870;2023-04-24T11:37:43;6.65;;;1.00;;
69244;SDS011;56357;52.304;4.870;2023-04-24T11:40:12;9.10;;;0.80;;
69244;SDS011;56357;52.304;4.870;2023-04-24T11:42:41;7.53;;;0.77;;
69244;SDS011;56357;52.304;4.870;2023-04-24T11:45:09;9.70;;;1.08;;
69244;SDS011;56357;52.304;4.870;2023-04-24T11:47:37;4.95;;;0.57;;
69244;SDS011;56357;52.304;4.870;2023-04-24T11:50:05;5.88;;;1.20;;
69244;SDS011;56357;52.304;4.870;2023-04-24T11:52:38;7.43;;;0.95;;
69244;SDS011;56357;52.304;4.870;2023-04-24T11:57:42;5.75;;;0.88;;
69244;SDS011;56357;52.304;4.870;2023-04-24T12:00:15;5.47;;;0.80;;
69244;SDS011;56357;52.304;4.870;2023-04-24T12:02:49;3.97;;;0.77;;
69244;SDS011;56357;52.304;4.870;2023-04-24T12:07:46;9.55;;;1.65;;
69244;SDS011;56357;52.304;4.870;2023-04-24T12:10:13;6.15;;;1.10;;
69244;SDS011;56357;52.304;4.870;2023-04-24T12:12:39;5.57;;;0.80;;
69244;SDS011;56357;52.304;4.870;2023-04-24T12:15:06;8.25;;;1.00;;
69244;SDS011;56357;52.304;4.870;2023-04-24T12:17:34;5.47;;;0.50;;
69244;SDS011;56357;52.304;4.870;2023-04-24T12:20:02;10.95;;;2.05;;
69244;SDS011;56357;52.304;4.870;2023-04-24T12:25:19;10.15;;;0.85;;
69244;SDS011;56357;52.304;4.870;2023-04-24T12:27:52;8.13;;;0.93;;
69244;SDS011;56357;52.304;4.870;2023-04-24T12:30:20;10.02;;;1.40;;
69244;SDS011;56357;52.304;4.870;2023-04-24T12:32:52;9.43;;;1.25;;
69244;SDS011;56357;52.304;4.870;2023-04-24T12:35:20;11.10;;;1.63;;
69244;SDS011;56357;52.304;4.870;2023-04-24T12:37:48;9.52;;;1.40;;
69244;SDS011;56357;52.304;4.870;2023-04-24T12:40:16;10.35;;;1.05;;
69244;SDS011;56357;52.304;4.870;2023-04-24T12:42:44;6.82;;;1.20;;
69244;SDS011;56357;52.304;4.870;2023-04-24T12:45:12;7.65;;;1.27;;
69244;SDS011;56357;52.304;4.870;2023-04-24T12:47:40;8.75;;;0.98;;
69244;SDS011;56357;52.304;4.870;2023-04-24T12:50:08;8.52;;;1.13;;
69244;SDS011;56357;52.304;4.870;2023-04-24T12:52:36;8.30;;;1.52;;
69244;SDS011;56357;52.304;4.870;2023-04-24T12:55:03;6.10;;;0.90;;
69244;SDS011;56357;52.304;4.870;2023-04-24T12:57:33;9.18;;;1.25;;
69244;SDS011;56357;52.304;4.870;2023-04-24T13:00:01;11.00;;;1.30;;
69244;SDS011;56357;52.304;4.870;2023-04-24T13:02:28;8.90;;;1.30;;
69244;SDS011;56357;52.304;4.870;2023-04-24T13:04:56;12.40;;;1.50;;
69244;SDS011;56357;52.304;4.870;2023-04-24T13:07:23;11.60;;;1.20;;
69244;SDS011;56357;52.304;4.870;2023-04-24T13:09:50;8.50;;;1.30;;
69244;SDS011;56357;52.304;4.870;2023-04-24T13:12:17;5.82;;;1.13;;
69244;SDS011;56357;52.304;4.870;2023-04-24T13:14:44;7.40;;;1.27;;
69244;SDS011;56357;52.304;4.870;2023-04-24T13:17:11;8.45;;;1.20;;
69244;SDS011;56357;52.304;4.870;2023-04-24T13:19:40;7.25;;;1.33;;
69244;SDS011;56357;52.304;4.870;2023-04-24T13:22:08;8.43;;;1.20;;
69244;SDS011;56357;52.304;4.870;2023-04-24T13:24:36;9.13;;;1.50;;
69244;SDS011;56357;52.304;4.870;2023-04-24T13:27:04;8.32;;;1.40;;
69244;SDS011;56357;52.304;4.870;2023-04-24T13:29:31;8.10;;;1.25;;
69244;SDS011;56357;52.304;4.870;2023-04-24T13:31:57;9.90;;;1.73;;
69244;SDS011;56357;52.304;4.870;2023-04-24T13:34:24;6.93;;;1.00;;
69244;SDS011;56357;52.304;4.870;2023-04-24T13:36:55;10.65;;;1.60;;
69244;SDS011;56357;52.304;4.870;2023-04-24T13:39:23;6.60;;;1.08;;
69244;SDS011;56357;52.304;4.870;2023-04-24T13:41:50;14.05;;;2.13;;
69244;SDS011;56357;52.304;4.870;2023-04-24T13:44:17;9.23;;;1.52;;
69244;SDS011;56357;52.304;4.870;2023-04-24T13:46:45;7.28;;;1.10;;
69244;SDS011;56357;52.304;4.870;2023-04-24T13:49:13;6.93;;;1.10;;
69244;SDS011;56357;52.304;4.870;2023-04-24T13:51:40;6.68;;;1.20;;
69244;SDS011;56357;52.304;4.870;2023-04-24T13:54:07;6.55;;;1.50;;
69244;SDS011;56357;52.304;4.870;2023-04-24T13:56:34;6.85;;;1.30;;
69244;SDS011;56357;52.304;4.870;2023-04-24T13:59:01;7.97;;;1.25;;
69244;SDS011;56357;52.304;4.870;2023-04-24T14:01:27;8.68;;;1.27;;
69244;SDS011;56357;52.304;4.870;2023-04-24T14:03:54;8.77;;;1.30;;
69244;SDS011;56357;52.304;4.870;2023-04-24T14:06:21;6.38;;;1.35;;
69244;SDS011;56357;52.304;4.870;2023-04-24T14:08:49;12.57;;;1.40;;
69244;SDS011;56357;52.304;4.870;2023-04-24T14:11:16;6.07;;;1.27;;
69244;SDS011;56357;52.304;4.870;2023-04-24T14:13:43;7.20;;;1.83;;
69244;SDS011;56357;52.304;4.870;2023-04-24T14:16:10;8.05;;;1.23;;
69244;SDS011;56357;52.304;4.870;2023-04-24T14:18:37;7.75;;;1.60;;
69244;SDS011;56357;52.304;4.870;2023-04-24T14:21:03;9.57;;;1.27;;
69244;SDS011;56357;52.304;4.870;2023-04-24T14:23:30;6.38;;;1.58;;
69244;SDS011;56357;52.304;4.870;2023-04-24T14:25:57;8.63;;;1.25;;
69244;SDS011;56357;52.304;4.870;2023-04-24T14:28:24;6.88;;;1.33;;
69244;SDS011;56357;52.304;4.870;2023-04-24T14:30:51;8.07;;;1.75;;
69244;SDS011;56357;52.304;4.870;2023-04-24T14:33:18;9.98;;;2.30;;
69244;SDS011;56357;52.304;4.870;2023-04-24T14:35:45;8.30;;;2.72;;
69244;SDS011;56357;52.304;4.870;2023-04-24T14:38:12;7.07;;;2.20;;
69244;SDS011;56357;52.304;4.870;2023-04-24T14:40:39;11.55;;;2.00;;
69244;SDS011;56357;52.304;4.870;2023-04-24T14:43:06;11.30;;;2.78;;
69244;SDS011;56357;52.304;4.870;2023-04-24T14:45:32;11.77;;;2.20;;
69244;SDS011;56357;52.304;4.870;2023-04-24T14:47:59;8.43;;;2.08;;
69244;SDS011;56357;52.304;4.870;2023-04-24T14:50:25;8.32;;;2.28;;
69244;SDS011;56357;52.304;4.870;2023-04-24T14:52:53;8.35;;;2.22;;
69244;SDS011;56357;52.304;4.870;2023-04-24T14:55:22;9.50;;;2.28;;
69244;SDS011;56357;52.304;4.870;2023-04-24T14:57:48;9.40;;;2.17;;
69244;SDS011;56357;52.304;4.870;2023-04-24T15:00:15;9.00;;;1.98;;